Time;durP1;ratioP1;P1;durP2;ratioP2;P2;SDS_P1;SDS_P2;PMS_P1;PMS_P2;Temp;Humidity;BMP_temperature;BMP_pressure;BME280_temperature;BME280_humidity;BME280_pressure;Samples;Min_cycle;Max_cycle;Signal;HPM_P1;HPM_P2
2022/09/15 00:01:15;;;;;;;3.15;1.60;;;20.80;99.90;;;;;;7392698;19;20151;-73
2022/09/15 00:03:41;;;;;;;1.77;1.30;;;20.70;99.90;;;;;;7394727;19;20202;-74
2022/09/15 00:06:08;;;;;;;2.15;1.27;;;20.80;99.90;;;;;;7391503;19;20134;-73
2022/09/15 00:08:33;;;;;;;2.28;1.40;;;20.80;99.90;;;;;;7391851;19;20160;-73
2022/09/15 00:11:24;;;;;;;1.92;1.10;;;20.90;99.90;;;;;;7394239;19;20155;-73
2022/09/15 00:13:50;;;;;;;2.17;1.48;;;20.90;99.90;;;;;;7394820;19;20489;-74
2022/09/15 00:16:18;;;;;;;3.25;1.50;;;20.90;99.90;;;;;;7394605;19;20134;-74
2022/09/15 00:18:45;;;;;;;2.45;1.20;;;20.90;99.90;;;;;;7390693;19;20151;-72
2022/09/15 00:21:17;;;;;;;1.85;1.30;;;20.90;99.90;;;;;;7394572;19;20135;-75
2022/09/15 00:23:43;;;;;;;2.25;1.33;;;20.90;99.90;;;;;;7391252;19;20135;-73
2022/09/15 00:26:12;;;;;;;2.50;1.45;;;20.90;99.90;;;;;;7391300;19;20169;-74
2022/09/15 00:28:39;;;;;;;7.35;2.03;;;20.80;99.90;;;;;;7393309;19;20142;-73
2022/09/15 00:31:14;;;;;;;2.47;1.58;;;20.80;99.90;;;;;;7393528;19;20135;-72
2022/09/15 00:33:40;;;;;;;2.58;1.30;;;20.70;99.90;;;;;;7393814;19;20134;-74
2022/09/15 00:36:13;;;;;;;2.55;1.10;;;20.70;99.90;;;;;;7394649;19;20130;-75
2022/09/15 00:38:39;;;;;;;3.30;1.40;;;20.80;99.90;;;;;;7391559;19;20147;-72
2022/09/15 00:41:07;;;;;;;1.35;1.20;;;20.80;99.90;;;;;;7392775;19;20142;-74
2022/09/15 00:43:52;;;;;;;2.78;1.60;;;20.80;99.90;;;;;;7391028;19;20177;-74
2022/09/15 00:46:26;;;;;;;2.53;1.25;;;20.50;99.90;;;;;;7394154;19;20571;-73
2022/09/15 00:48:58;;;;;;;2.33;1.25;;;20.20;99.90;;;;;;7391563;19;20154;-74
2022/09/15 00:51:47;;;;;;;1.75;1.08;;;20.40;99.90;;;;;;7391737;19;20134;-74
2022/09/15 00:54:30;;;;;;;2.58;1.20;;;20.50;99.90;;;;;;7394573;19;20147;-73
2022/09/15 00:57:01;;;;;;;3.40;1.35;;;20.40;99.90;;;;;;7392920;19;20143;-73
2022/09/15 00:59:30;;;;;;;2.38;1.42;;;20.40;99.90;;;;;;7391037;19;20158;-73
2022/09/15 01:02:22;;;;;;;1.38;1.27;;;20.50;99.90;;;;;;7389051;19;20663;-74
2022/09/15 01:04:51;;;;;;;1.30;1.20;;;20.60;99.90;;;;;;7389943;19;20466;-74
2022/09/15 01:07:21;;;;;;;1.65;0.95;;;20.60;99.90;;;;;;7390201;19;20578;-74
2022/09/15 01:09:55;;;;;;;4.90;1.08;;;20.50;99.90;;;;;;7391855;19;20147;-74
2022/09/15 01:12:23;;;;;;;0.80;0.80;;;20.70;99.90;;;;;;7389603;19;20494;-73
2022/09/15 01:14:48;;;;;;;6.03;1.42;;;20.40;99.90;;;;;;7391332;19;20153;-73
2022/09/15 01:17:22;;;;;;;2.22;1.10;;;20.50;99.90;;;;;;7391785;19;20142;-74
2022/09/15 01:20:10;;;;;;;3.70;1.98;;;20.20;99.90;;;;;;7391730;19;20538;-72
2022/09/15 01:22:59;;;;;;;5.47;1.13;;;20.10;99.90;;;;;;7393506;19;20142;-75
2022/09/15 01:25:34;;;;;;;2.90;0.93;;;20.20;99.90;;;;;;7391346;19;20607;-73
2022/09/15 01:28:29;;;;;;;2.38;0.80;;;20.40;99.90;;;;;;7390036;19;20788;-73
2022/09/15 01:31:21;;;;;;;1.63;1.17;;;20.30;99.90;;;;;;7391725;19;20139;-73
2022/09/15 01:34:14;;;;;;;2.13;1.02;;;20.30;99.90;;;;;;7387600;19;20142;-72
2022/09/15 01:36:47;;;;;;;1.00;0.90;;;20.30;99.90;;;;;;7391990;19;20777;-74
2022/09/15 01:39:19;;;;;;;4.00;1.08;;;20.50;99.90;;;;;;7391156;19;20218;-73
2022/09/15 01:41:49;;;;;;;1.52;0.88;;;20.60;99.90;;;;;;7390310;19;20154;-74
2022/09/15 01:44:26;;;;;;;1.45;0.90;;;20.10;99.90;;;;;;7391512;19;20135;-74
2022/09/15 01:46:59;;;;;;;0.88;0.75;;;20.10;99.90;;;;;;7388139;19;20466;-74
2022/09/15 01:49:33;;;;;;;0.80;0.80;;;20.20;99.90;;;;;;7392466;19;20135;-74
2022/09/15 01:51:59;;;;;;;2.15;1.13;;;20.20;99.90;;;;;;7390963;19;20237;-74
2022/09/15 01:54:44;;;;;;;2.72;1.02;;;20.20;99.90;;;;;;7392591;19;20176;-74
2022/09/15 01:57:10;;;;;;;2.08;0.90;;;20.40;99.90;;;;;;7392457;19;20534;-73
2022/09/15 01:59:36;;;;;;;1.73;1.05;;;20.30;99.90;;;;;;7391089;19;20142;-74
2022/09/15 02:02:08;;;;;;;1.77;0.90;;;20.20;99.90;;;;;;7389810;19;20169;-74
2022/09/15 02:04:45;;;;;;;2.15;1.10;;;20.30;99.90;;;;;;7391161;19;20131;-74
2022/09/15 02:07:44;;;;;;;1.77;1.00;;;20.30;99.90;;;;;;7391628;19;20590;-73
2022/09/15 02:10:16;;;;;;;1.55;0.93;;;20.40;99.90;;;;;;7387625;19;20778;-74
2022/09/15 02:12:53;;;;;;;1.65;1.08;;;20.40;99.90;;;;;;7388536;19;20149;-74
2022/09/15 02:15:32;;;;;;;2.38;0.88;;;20.50;99.90;;;;;;7390574;19;20142;-74
2022/09/15 02:18:01;;;;;;;1.77;0.90;;;20.60;99.90;;;;;;7392410;19;20659;-74
2022/09/15 02:20:37;;;;;;;3.50;0.98;;;20.70;99.90;;;;;;7389076;19;20134;-73
2022/09/15 02:23:33;;;;;;;1.80;0.98;;;20.60;99.90;;;;;;7389883;19;20148;-75
2022/09/15 02:26:07;;;;;;;2.00;1.00;;;20.60;99.90;;;;;;7386736;19;20254;-73
2022/09/15 02:28:38;;;;;;;2.88;1.02;;;20.60;99.90;;;;;;7392063;19;20131;-74
2022/09/15 02:31:09;;;;;;;1.67;0.88;;;20.50;99.90;;;;;;7389233;19;20147;-75
2022/09/15 02:33:40;;;;;;;1.95;1.00;;;20.40;99.90;;;;;;7391579;19;20169;-74
2022/09/15 02:36:07;;;;;;;2.55;1.08;;;20.40;99.90;;;;;;7388908;19;20178;-73
2022/09/15 02:38:39;;;;;;;1.65;0.70;;;20.50;99.90;;;;;;7388520;19;20202;-74
2022/09/15 02:41:05;;;;;;;1.42;1.02;;;20.40;99.90;;;;;;7388854;19;20155;-74
2022/09/15 02:43:32;;;;;;;4.53;0.80;;;20.30;99.90;;;;;;7384107;19;20153;-74
2022/09/15 02:45:58;;;;;;;5.38;1.35;;;20.40;99.90;;;;;;7389980;19;20158;-74
2022/09/15 02:48:24;;;;;;;1.70;1.05;;;20.40;99.90;;;;;;7394530;19;20139;-75
2022/09/15 02:50:50;;;;;;;1.63;1.00;;;20.40;99.90;;;;;;7395526;19;20157;-74
2022/09/15 02:53:15;;;;;;;2.88;0.95;;;20.50;99.90;;;;;;7397097;19;20225;-74
2022/09/15 02:55:41;;;;;;;1.60;0.88;;;20.60;99.90;;;;;;7394801;19;20273;-74
2022/09/15 02:58:07;;;;;;;2.13;1.17;;;20.40;99.90;;;;;;7389597;19;20168;-74
2022/09/15 03:00:33;;;;;;;1.17;0.90;;;20.40;99.90;;;;;;7396082;19;20129;-73
2022/09/15 03:02:59;;;;;;;1.10;0.80;;;20.50;99.90;;;;;;7395974;19;20206;-74
2022/09/15 03:05:27;;;;;;;2.10;1.10;;;20.20;99.90;;;;;;7395229;19;20135;-74
2022/09/15 03:07:54;;;;;;;1.52;0.85;;;20.20;99.90;;;;;;7397555;19;20143;-73
2022/09/15 03:10:22;;;;;;;1.95;0.90;;;20.30;99.90;;;;;;7397137;19;20131;-74
2022/09/15 03:12:50;;;;;;;1.05;0.88;;;20.30;99.90;;;;;;7396769;19;20644;-75
2022/09/15 03:15:19;;;;;;;2.33;1.00;;;20.40;99.90;;;;;;7397395;19;20138;-74
2022/09/15 03:17:46;;;;;;;1.02;0.80;;;20.40;99.90;;;;;;7395704;19;20568;-75
2022/09/15 03:20:15;;;;;;;1.58;0.82;;;20.30;99.90;;;;;;7393524;19;20131;-74
2022/09/15 03:22:41;;;;;;;1.15;0.55;;;20.50;99.90;;;;;;7396229;19;20139;-74
2022/09/15 03:25:08;;;;;;;1.67;0.90;;;20.30;99.90;;;;;;7391943;19;20178;-73
2022/09/15 03:27:35;;;;;;;1.85;0.85;;;20.40;99.90;;;;;;7394286;19;20154;-74
2022/09/15 03:30:01;;;;;;;1.50;0.93;;;20.30;99.90;;;;;;7392675;19;20150;-75
2022/09/15 03:32:27;;;;;;;1.75;0.73;;;20.20;99.90;;;;;;7396645;19;20135;-74
2022/09/15 03:34:52;;;;;;;1.70;0.80;;;20.10;99.90;;;;;;7395027;19;20131;-74
2022/09/15 03:37:18;;;;;;;3.40;0.80;;;20.10;99.90;;;;;;7394812;19;20140;-74
2022/09/15 03:39:44;;;;;;;1.65;0.70;;;20.20;99.90;;;;;;7395234;19;20185;-73
2022/09/15 03:42:10;;;;;;;1.58;0.80;;;20.40;99.90;;;;;;7395551;19;20152;-74
2022/09/15 03:44:36;;;;;;;1.67;0.80;;;20.40;99.90;;;;;;7395167;19;20150;-75
2022/09/15 03:47:02;;;;;;;2.00;1.10;;;20.20;99.90;;;;;;7394208;19;20135;-74
2022/09/15 03:49:28;;;;;;;4.07;1.23;;;20.20;99.90;;;;;;7395911;19;20145;-74
2022/09/15 03:51:54;;;;;;;1.20;0.80;;;20.30;99.90;;;;;;7393436;19;20143;-73
2022/09/15 03:54:20;;;;;;;1.63;1.00;;;20.30;99.90;;;;;;7396326;19;20155;-74
2022/09/15 03:56:47;;;;;;;3.83;1.00;;;20.40;99.90;;;;;;7393653;19;20138;-75
2022/09/15 03:59:15;;;;;;;1.30;0.88;;;20.20;99.90;;;;;;7391313;19;20161;-75
2022/09/15 04:01:41;;;;;;;2.55;1.10;;;20.30;99.90;;;;;;7395245;19;20733;-75
2022/09/15 04:04:07;;;;;;;1.90;0.75;;;20.10;99.90;;;;;;7393254;19;20135;-75
2022/09/15 04:06:34;;;;;;;1.45;0.77;;;20.30;99.90;;;;;;7392029;19;20238;-75
2022/09/15 04:09:00;;;;;;;2.33;1.00;;;20.20;99.90;;;;;;7392607;19;20135;-74
2022/09/15 04:11:25;;;;;;;1.05;0.73;;;20.30;99.90;;;;;;7394005;19;20141;-74
2022/09/15 04:13:53;;;;;;;2.08;0.82;;;20.30;99.90;;;;;;7394138;19;20214;-74
2022/09/15 04:16:22;;;;;;;1.17;0.70;;;20.20;99.90;;;;;;7394287;19;20154;-75
2022/09/15 04:18:49;;;;;;;1.92;0.90;;;20.20;99.90;;;;;;7391094;19;20591;-74
2022/09/15 04:21:19;;;;;;;2.58;1.00;;;20.20;99.90;;;;;;7394955;19;20626;-74
2022/09/15 04:23:45;;;;;;;3.80;0.93;;;20.00;99.90;;;;;;7391851;19;20145;-75
2022/09/15 04:26:28;;;;;;;5.47;1.10;;;20.00;99.90;;;;;;7393410;19;20138;-75
2022/09/15 04:28:54;;;;;;;2.05;0.80;;;20.20;99.90;;;;;;7392242;19;20206;-74
2022/09/15 04:31:20;;;;;;;1.52;0.88;;;20.20;99.90;;;;;;7394330;19;20138;-73
2022/09/15 04:33:46;;;;;;;2.20;0.70;;;20.30;99.90;;;;;;7392074;19;20549;-72
2022/09/15 04:36:23;;;;;;;1.63;0.77;;;20.10;99.90;;;;;;7393454;19;20159;-74
2022/09/15 04:38:50;;;;;;;1.42;0.80;;;20.20;99.90;;;;;;7394164;19;20595;-74
2022/09/15 04:41:17;;;;;;;2.55;1.13;;;20.10;99.90;;;;;;7395484;19;20131;-74
2022/09/15 04:43:43;;;;;;;1.75;0.90;;;20.20;99.90;;;;;;7391197;19;20206;-74
2022/09/15 04:46:11;;;;;;;0.75;0.60;;;20.20;99.90;;;;;;7390783;19;20142;-73
2022/09/15 04:48:37;;;;;;;1.35;0.80;;;20.00;99.90;;;;;;7391648;19;20542;-73
2022/09/15 04:51:22;;;;;;;1.17;0.80;;;19.90;99.90;;;;;;7392891;19;20150;-75
2022/09/15 04:53:48;;;;;;;1.75;0.88;;;19.80;99.90;;;;;;7392238;19;20166;-75
2022/09/15 04:56:20;;;;;;;1.90;1.20;;;19.90;99.90;;;;;;7392546;19;20158;-73
2022/09/15 04:58:49;;;;;;;2.25;0.90;;;19.90;99.90;;;;;;7393510;19;20145;-74
2022/09/15 05:01:17;;;;;;;4.32;1.13;;;20.00;99.90;;;;;;7393959;19;20127;-74
2022/09/15 05:03:45;;;;;;;14.73;1.75;;;19.80;99.90;;;;;;7392324;19;20158;-73
2022/09/15 05:06:14;;;;;;;2.58;1.00;;;19.80;99.90;;;;;;7388199;19;20143;-74
2022/09/15 05:08:40;;;;;;;1.63;0.90;;;19.80;99.90;;;;;;7390845;19;20139;-74
2022/09/15 05:11:09;;;;;;;2.00;0.80;;;19.80;99.90;;;;;;7391772;19;20241;-75
2022/09/15 05:13:35;;;;;;;1.08;0.80;;;19.90;99.90;;;;;;7391976;19;20171;-74
2022/09/15 05:16:10;;;;;;;2.75;0.77;;;19.90;99.90;;;;;;7394950;19;20572;-74
2022/09/15 05:18:37;;;;;;;2.78;1.00;;;20.00;99.90;;;;;;7392589;19;20141;-74
2022/09/15 05:21:05;;;;;;;1.50;0.80;;;19.90;99.90;;;;;;7394284;19;20131;-74
2022/09/15 05:23:33;;;;;;;1.45;0.80;;;20.00;99.90;;;;;;7390999;19;20350;-74
2022/09/15 05:26:01;;;;;;;3.58;0.90;;;20.00;99.90;;;;;;7388571;19;20151;-75
2022/09/15 05:28:27;;;;;;;2.72;0.80;;;20.10;99.90;;;;;;7391959;19;20487;-76
2022/09/15 05:30:54;;;;;;;1.10;0.50;;;20.00;99.90;;;;;;7389007;19;20161;-75
2022/09/15 05:33:22;;;;;;;1.70;0.90;;;20.00;99.90;;;;;;7389909;19;20807;-74
2022/09/15 05:35:53;;;;;;;1.20;0.80;;;20.00;99.90;;;;;;7390341;19;20167;-75
2022/09/15 05:38:19;;;;;;;1.80;0.60;;;20.10;99.90;;;;;;7389183;19;20611;-75
2022/09/15 05:40:45;;;;;;;3.60;0.80;;;20.20;99.90;;;;;;7391304;19;20165;-75
2022/09/15 05:43:10;;;;;;;1.33;0.75;;;20.20;99.90;;;;;;7388156;19;20210;-75
2022/09/15 05:45:36;;;;;;;1.70;0.60;;;20.10;99.90;;;;;;7398472;19;20158;-74
2022/09/15 05:48:02;;;;;;;1.35;0.90;;;19.90;99.90;;;;;;7391683;19;20142;-75
2022/09/15 05:50:29;;;;;;;1.42;0.60;;;19.90;99.90;;;;;;7387299;19;20146;-75
2022/09/15 05:52:55;;;;;;;3.08;0.70;;;19.90;99.90;;;;;;7389167;19;20147;-75
2022/09/15 05:55:21;;;;;;;1.15;0.68;;;19.90;99.90;;;;;;7388709;19;20146;-75
2022/09/15 05:57:47;;;;;;;1.40;0.82;;;20.00;99.90;;;;;;7390666;19;20149;-76
2022/09/15 06:00:13;;;;;;;0.93;0.80;;;20.00;99.90;;;;;;7381156;19;20166;-75
2022/09/15 06:02:39;;;;;;;2.17;1.20;;;19.90;99.90;;;;;;7389718;19;20138;-75
2022/09/15 06:05:05;;;;;;;2.05;0.88;;;19.90;99.90;;;;;;7383821;19;20135;-76
2022/09/15 06:07:31;;;;;;;1.23;0.60;;;20.00;99.90;;;;;;7387684;19;20638;-74
2022/09/15 06:09:57;;;;;;;0.90;0.60;;;19.90;99.90;;;;;;7384088;19;20134;-75
2022/09/15 06:12:22;;;;;;;1.48;0.60;;;20.00;99.90;;;;;;7389413;19;20242;-75
2022/09/15 06:14:49;;;;;;;3.13;0.73;;;20.00;99.90;;;;;;7388134;19;20587;-75
2022/09/15 06:17:21;;;;;;;3.38;0.80;;;20.10;99.90;;;;;;7387379;19;20130;-75
2022/09/15 06:19:48;;;;;;;1.50;0.80;;;20.10;99.90;;;;;;7383657;19;20167;-75
2022/09/15 06:22:14;;;;;;;3.10;0.70;;;20.20;99.90;;;;;;7384295;19;20168;-76
2022/09/15 06:24:39;;;;;;;1.80;0.73;;;20.20;99.90;;;;;;7388524;19;20142;-74
2022/09/15 06:27:06;;;;;;;9.25;1.02;;;20.30;99.90;;;;;;7389526;19;20127;-75
2022/09/15 06:29:32;;;;;;;3.13;1.33;;;20.30;99.90;;;;;;7388440;19;20370;-75
2022/09/15 06:32:01;;;;;;;3.58;2.30;;;20.30;99.90;;;;;;7389525;19;20222;-75
2022/09/15 06:34:31;;;;;;;1.55;0.90;;;20.10;99.90;;;;;;7384078;19;20134;-75
2022/09/15 06:37:00;;;;;;;1.15;0.68;;;20.00;99.90;;;;;;7390831;19;20157;-74
2022/09/15 06:39:26;;;;;;;1.80;1.02;;;20.00;99.90;;;;;;7387718;19;20163;-75
2022/09/15 06:41:52;;;;;;;2.03;0.90;;;20.00;99.90;;;;;;7390265;19;20572;-76
2022/09/15 06:44:18;;;;;;;1.13;0.80;;;20.10;99.90;;;;;;7390404;19;20174;-76
2022/09/15 06:46:44;;;;;;;1.48;0.70;;;19.90;99.90;;;;;;7383822;19;20142;-76
2022/09/15 06:49:10;;;;;;;5.50;1.35;;;20.00;99.90;;;;;;7388949;19;20655;-75
2022/09/15 06:51:35;;;;;;;5.03;1.40;;;20.00;99.90;;;;;;7388051;19;20159;-74
2022/09/15 06:54:02;;;;;;;1.20;0.75;;;20.00;99.90;;;;;;7389074;19;20157;-74
2022/09/15 06:56:28;;;;;;;2.05;0.90;;;20.10;99.90;;;;;;7388251;19;20130;-75
2022/09/15 06:58:55;;;;;;;3.85;1.13;;;20.30;99.90;;;;;;7388062;19;20138;-76
2022/09/15 07:01:24;;;;;;;1.58;0.95;;;20.10;99.90;;;;;;7386733;19;20143;-75
2022/09/15 07:03:50;;;;;;;2.35;1.08;;;20.10;99.90;;;;;;7390170;19;20157;-76
2022/09/15 07:06:17;;;;;;;0.70;0.70;;;20.00;99.90;;;;;;7391010;19;20162;-76
2022/09/15 07:08:44;;;;;;;2.92;0.82;;;20.10;99.90;;;;;;7390078;19;20135;-77
2022/09/15 07:11:10;;;;;;;1.75;1.00;;;20.10;99.90;;;;;;7390682;19;20464;-77
2022/09/15 07:13:36;;;;;;;3.88;0.95;;;20.10;99.90;;;;;;7392237;19;20138;-77
2022/09/15 07:16:04;;;;;;;3.10;0.85;;;20.00;99.90;;;;;;7393414;19;20143;-77
2022/09/15 07:18:31;;;;;;;2.90;1.10;;;20.00;99.90;;;;;;7397277;19;20146;-76
2022/09/15 07:21:09;;;;;;;4.05;0.93;;;19.90;99.90;;;;;;7391529;19;20152;-76
2022/09/15 07:23:36;;;;;;;3.13;1.02;;;19.80;99.90;;;;;;7385501;19;20202;-75
2022/09/15 07:26:06;;;;;;;1.20;0.93;;;19.80;99.90;;;;;;7387915;19;20150;-76
2022/09/15 07:28:32;;;;;;;3.47;0.98;;;19.80;99.90;;;;;;7389839;19;20166;-75
2022/09/15 07:30:58;;;;;;;3.25;0.90;;;19.60;99.90;;;;;;7389497;19;20143;-76
2022/09/15 07:33:23;;;;;;;2.60;1.02;;;19.70;99.90;;;;;;7395285;19;20153;-76
2022/09/15 07:35:50;;;;;;;2.60;1.00;;;19.70;99.90;;;;;;7395808;19;20610;-76
2022/09/15 07:38:15;;;;;;;1.98;1.00;;;19.90;99.90;;;;;;7395566;19;20155;-76
2022/09/15 07:40:41;;;;;;;4.80;3.55;;;19.90;99.90;;;;;;7400945;19;20139;-76
2022/09/15 07:43:07;;;;;;;3.17;1.30;;;20.10;99.90;;;;;;7396520;19;20139;-76
2022/09/15 07:45:35;;;;;;;2.08;1.10;;;19.90;99.90;;;;;;7392368;19;20134;-76
2022/09/15 07:48:01;;;;;;;2.88;1.52;;;20.00;99.90;;;;;;7391656;19;20146;-76
2022/09/15 07:50:27;;;;;;;3.58;1.38;;;20.00;99.90;;;;;;7399188;19;20130;-76
2022/09/15 07:52:56;;;;;;;3.28;1.10;;;20.00;99.90;;;;;;7397538;19;20254;-76
2022/09/15 07:55:23;;;;;;;2.97;1.10;;;20.00;99.90;;;;;;7398043;19;20173;-76
2022/09/15 07:58:02;;;;;;;3.35;1.23;;;19.90;99.90;;;;;;7398158;19;20589;-76
2022/09/15 08:00:28;;;;;;;3.25;1.98;;;20.00;99.90;;;;;;7391956;19;20181;-76
2022/09/15 08:02:55;;;;;;;8.02;2.47;;;19.90;99.90;;;;;;7398294;19;20139;-75
2022/09/15 08:05:25;;;;;;;10.40;2.55;;;19.90;99.90;;;;;;7397547;19;20582;-75
2022/09/15 08:07:51;;;;;;;5.10;1.60;;;19.90;99.90;;;;;;7398914;19;20213;-75
2022/09/15 08:10:17;;;;;;;6.00;1.85;;;19.70;99.90;;;;;;7390755;19;20575;-75
2022/09/15 08:12:43;;;;;;;7.50;2.60;;;19.80;99.90;;;;;;7396962;19;20163;-76
2022/09/15 08:15:09;;;;;;;6.57;1.90;;;19.80;99.90;;;;;;7398580;19;20159;-76
2022/09/15 08:17:35;;;;;;;5.43;1.67;;;19.80;99.90;;;;;;7398430;19;20138;-74
2022/09/15 08:20:01;;;;;;;4.93;1.85;;;19.80;99.90;;;;;;7395864;19;20823;-75
2022/09/15 08:22:26;;;;;;;5.63;1.48;;;19.90;99.90;;;;;;7391537;19;20139;-76
2022/09/15 08:24:52;;;;;;;4.47;1.48;;;19.90;99.90;;;;;;7391521;19;20154;-75
2022/09/15 08:27:18;;;;;;;3.53;1.33;;;20.00;99.90;;;;;;7392648;19;20290;-76
2022/09/15 08:29:43;;;;;;;1.77;0.93;;;20.00;99.90;;;;;;7392892;19;20571;-76
2022/09/15 08:32:09;;;;;;;2.00;1.15;;;20.00;99.90;;;;;;7396379;19;20600;-76
2022/09/15 08:34:35;;;;;;;3.88;1.45;;;20.00;99.90;;;;;;7397075;19;20139;-74
2022/09/15 08:37:01;;;;;;;5.57;1.92;;;20.00;99.90;;;;;;7396878;19;20142;-74
2022/09/15 08:39:27;;;;;;;3.78;1.35;;;19.90;99.90;;;;;;7394755;19;20141;-74
2022/09/15 08:41:54;;;;;;;2.38;1.17;;;19.80;99.90;;;;;;7395243;19;20159;-75
2022/09/15 08:44:37;;;;;;;1.83;1.33;;;19.90;99.90;;;;;;7394942;19;20163;-74
2022/09/15 08:47:19;;;;;;;1.55;1.10;;;20.00;99.90;;;;;;7393167;19;20134;-75
2022/09/15 08:50:01;;;;;;;12.27;9.10;;;20.00;99.90;;;;;;7394007;19;20135;-74
2022/09/15 08:52:48;;;;;;;3.38;1.67;;;20.00;99.90;;;;;;7394469;19;20158;-74
2022/09/15 08:55:19;;;;;;;2.10;1.13;;;20.00;99.90;;;;;;7395881;19;20138;-74
2022/09/15 08:57:45;;;;;;;2.75;1.30;;;20.10;99.90;;;;;;7394861;19;20219;-75
2022/09/15 09:00:16;;;;;;;1.70;1.10;;;20.10;99.90;;;;;;7391978;19;20151;-76
2022/09/15 09:02:59;;;;;;;1.33;0.95;;;20.20;99.90;;;;;;7394375;19;20150;-76
2022/09/15 09:06:02;;;;;;;3.78;1.33;;;20.20;99.90;;;;;;7394322;19;20161;-75
2022/09/15 09:08:48;;;;;;;4.18;1.10;;;20.10;99.90;;;;;;7397116;19;20470;-76
2022/09/15 09:11:17;;;;;;;1.48;1.10;;;20.20;99.90;;;;;;7394737;19;20156;-76
2022/09/15 09:14:19;;;;;;;4.40;1.20;;;20.30;99.90;;;;;;7397180;19;20134;-74
2022/09/15 09:16:56;;;;;;;2.20;0.93;;;20.20;99.90;;;;;;7397530;19;20145;-76
2022/09/15 09:19:35;;;;;;;3.10;1.00;;;20.20;99.90;;;;;;7395125;19;20145;-76
2022/09/15 09:22:14;;;;;;;1.10;1.00;;;20.20;99.90;;;;;;7393747;19;20142;-75
2022/09/15 09:24:49;;;;;;;1.02;0.80;;;20.40;99.90;;;;;;7392828;19;20216;-76
2022/09/15 09:27:18;;;;;;;2.92;1.10;;;20.40;99.90;;;;;;7393140;19;20134;-76
2022/09/15 09:29:48;;;;;;;2.10;1.42;;;20.30;99.90;;;;;;7392695;19;20142;-76
2022/09/15 09:32:26;;;;;;;4.70;0.98;;;20.40;99.90;;;;;;7389722;19;20131;-76
2022/09/15 09:35:11;;;;;;;2.45;0.90;;;20.50;99.90;;;;;;7391175;19;20135;-75
2022/09/15 09:37:37;;;;;;;0.47;0.47;;;20.60;99.90;;;;;;7389705;19;20150;-75
2022/09/15 09:40:03;;;;;;;5.13;4.13;;;20.50;99.90;;;;;;7391386;19;20206;-75
2022/09/15 09:42:32;;;;;;;1.15;1.00;;;20.40;99.90;;;;;;7390595;19;20147;-76
2022/09/15 09:44:58;;;;;;;1.38;1.08;;;20.30;99.90;;;;;;7392977;19;20159;-75
2022/09/15 09:47:28;;;;;;;3.10;0.70;;;20.20;99.90;;;;;;7390241;19;20130;-75
2022/09/15 09:49:54;;;;;;;1.02;0.80;;;20.20;99.90;;;;;;7391993;19;20481;-75
2022/09/15 09:52:37;;;;;;;1.55;0.80;;;20.10;99.90;;;;;;7393826;19;20487;-76
2022/09/15 09:55:18;;;;;;;1.58;1.00;;;19.90;99.90;;;;;;7389715;19;20162;-76
2022/09/15 09:57:43;;;;;;;1.35;0.60;;;19.70;99.90;;;;;;7392773;19;20161;-76
2022/09/15 10:00:32;;;;;;;1.67;0.45;;;19.60;99.90;;;;;;7391726;19;20209;-76
2022/09/15 10:03:10;;;;;;;2.40;1.05;;;19.40;99.90;;;;;;7388540;19;20165;-72
2022/09/15 10:05:36;;;;;;;0.77;0.50;;;19.40;99.90;;;;;;7388169;19;20226;-76
2022/09/15 10:08:02;;;;;;;0.50;0.40;;;19.40;99.90;;;;;;7393389;19;20511;-75
2022/09/15 10:10:31;;;;;;;0.60;0.60;;;19.20;99.90;;;;;;7391128;19;20492;-75
2022/09/15 10:13:00;;;;;;;0.90;0.50;;;19.00;99.90;;;;;;7396585;19;20127;-75
2022/09/15 10:15:28;;;;;;;1.25;0.60;;;19.00;99.90;;;;;;7390941;19;20173;-75
2022/09/15 10:17:55;;;;;;;1.17;0.52;;;18.90;99.90;;;;;;7392957;19;20175;-74
2022/09/15 10:20:44;;;;;;;0.60;0.60;;;18.90;99.90;;;;;;7394949;19;20130;-75
2022/09/15 10:23:16;;;;;;;0.80;0.50;;;18.80;99.90;;;;;;7391928;19;20140;-76
2022/09/15 10:25:42;;;;;;;0.52;0.35;;;18.80;99.90;;;;;;7388049;19;20159;-75
2022/09/15 10:28:08;;;;;;;0.50;0.40;;;18.80;99.90;;;;;;7391204;19;20142;-74
2022/09/15 10:30:35;;;;;;;0.30;0.30;;;18.90;99.90;;;;;;7388536;19;20706;-77
2022/09/15 10:33:24;;;;;;;0.50;0.50;;;18.90;99.90;;;;;;7390169;19;20795;-75
2022/09/15 10:35:52;;;;;;;1.17;1.00;;;18.80;99.90;;;;;;7389725;19;20604;-76
2022/09/15 10:38:27;;;;;;;1.27;1.17;;;18.70;99.90;;;;;;7390816;19;20741;-74
2022/09/15 10:41:02;;;;;;;2.28;1.20;;;18.60;99.90;;;;;;7395414;19;20161;-73
2022/09/15 10:43:47;;;;;;;1.38;0.80;;;18.40;99.90;;;;;;7391922;19;20131;-73
2022/09/15 10:46:25;;;;;;;0.88;0.80;;;18.20;99.90;;;;;;7389356;19;20142;-77
2022/09/15 10:49:14;;;;;;;0.98;0.88;;;18.10;99.90;;;;;;7388153;19;20135;-76
2022/09/15 10:51:55;;;;;;;2.20;1.38;;;18.00;99.90;;;;;;7389065;19;20138;-74
2022/09/15 10:54:35;;;;;;;2.80;1.77;;;17.90;99.90;;;;;;7387007;19;20177;-74
2022/09/15 10:57:17;;;;;;;3.67;1.65;;;17.90;99.90;;;;;;7390939;19;20226;-73
2022/09/15 11:00:05;;;;;;;2.67;1.90;;;17.90;99.90;;;;;;7388458;19;20154;-75
2022/09/15 11:02:58;;;;;;;2.85;1.88;;;17.90;99.90;;;;;;7385905;19;20170;-75
2022/09/15 11:05:26;;;;;;;3.25;1.83;;;18.00;99.90;;;;;;7388534;19;20151;-74
2022/09/15 11:08:28;;;;;;;2.42;1.63;;;18.00;99.90;;;;;;7399447;19;20139;-75
2022/09/15 11:11:03;;;;;;;4.47;2.00;;;17.90;99.90;;;;;;7396632;19;20188;-74
2022/09/15 11:13:49;;;;;;;1.60;1.50;;;17.90;99.90;;;;;;7402915;19;20906;-75
2022/09/15 11:16:18;;;;;;;2.38;1.77;;;17.80;99.90;;;;;;7395678;19;20139;-76
2022/09/15 11:19:05;;;;;;;1.90;1.70;;;17.80;99.90;;;;;;7395817;19;20138;-75
2022/09/15 11:21:48;;;;;;;3.97;1.77;;;17.80;99.90;;;;;;7394602;19;20143;-75
2022/09/15 11:24:30;;;;;;;1.58;1.42;;;17.80;99.90;;;;;;7393637;19;20158;-74
2022/09/15 11:27:15;;;;;;;2.85;2.00;;;17.80;99.90;;;;;;7393648;19;20161;-75
2022/09/15 11:30:00;;;;;;;3.45;2.13;;;17.70;99.90;;;;;;7394889;19;20218;-76
2022/09/15 11:32:44;;;;;;;4.20;2.15;;;17.80;99.90;;;;;;7400458;19;20146;-75
2022/09/15 11:36:02;;;;;;;2.95;2.25;;;17.80;99.90;;;;;;7395154;19;20138;-74
2022/09/15 11:38:47;;;;;;;3.78;2.15;;;18.00;99.90;;;;;;7391241;19;20142;-74
2022/09/15 11:41:29;;;;;;;2.42;2.10;;;18.00;99.90;;;;;;7394137;19;20137;-74
2022/09/15 11:44:23;;;;;;;4.82;1.90;;;18.00;99.90;;;;;;7390489;19;20143;-74
2022/09/15 11:47:04;;;;;;;3.70;2.40;;;17.90;99.90;;;;;;7390974;19;20165;-76
2022/09/15 11:49:44;;;;;;;3.88;2.42;;;17.90;99.90;;;;;;7391377;19;20142;-75
2022/09/15 11:52:21;;;;;;;4.22;2.38;;;18.00;99.90;;;;;;7393567;19;20168;-74
2022/09/15 11:54:56;;;;;;;3.80;1.95;;;18.00;99.90;;;;;;7393195;19;20193;-75
2022/09/15 11:57:31;;;;;;;6.30;2.30;;;18.00;99.90;;;;;;7393890;19;20142;-74
2022/09/15 12:00:09;;;;;;;2.72;1.75;;;18.00;99.90;;;;;;7393359;19;20811;-75
2022/09/15 12:02:42;;;;;;;4.35;2.20;;;18.10;99.90;;;;;;7393423;19;20150;-76
2022/09/15 12:05:22;;;;;;;3.72;2.00;;;18.00;99.90;;;;;;7395740;19;20138;-75
2022/09/15 12:08:15;;;;;;;6.28;2.42;;;17.90;99.90;;;;;;7395801;19;20138;-75
2022/09/15 12:10:47;;;;;;;3.92;2.63;;;17.70;99.90;;;;;;7394006;19;20699;-75
2022/09/15 12:13:19;;;;;;;5.43;2.50;;;17.70;99.90;;;;;;7395456;19;20138;-74
2022/09/15 12:15:46;;;;;;;3.92;2.53;;;17.70;99.90;;;;;;7393468;19;20171;-74
2022/09/15 12:18:41;;;;;;;4.22;2.63;;;17.80;99.90;;;;;;7388863;19;20142;-74
2022/09/15 12:21:22;;;;;;;4.68;2.20;;;17.70;99.90;;;;;;7393163;19;20145;-73
2022/09/15 12:24:18;;;;;;;2.85;1.90;;;17.70;99.90;;;;;;7395215;19;20139;-74
2022/09/15 12:26:47;;;;;;;5.45;2.13;;;17.80;99.90;;;;;;7389459;19;20155;-73
2022/09/15 12:29:25;;;;;;;4.20;2.15;;;17.90;99.90;;;;;;7393308;19;20141;-74
2022/09/15 12:32:09;;;;;;;3.40;2.20;;;17.90;99.90;;;;;;7392697;19;20154;-74
2022/09/15 12:34:37;;;;;;;5.00;1.95;;;17.90;99.90;;;;;;7392422;19;20146;-74
2022/09/15 12:37:12;;;;;;;2.63;1.73;;;18.00;99.90;;;;;;7390467;19;20181;-74
2022/09/15 12:39:41;;;;;;;2.65;1.92;;;18.10;99.90;;;;;;7394135;19;20149;-74
2022/09/15 12:42:17;;;;;;;3.65;1.58;;;18.20;99.90;;;;;;7394804;19;20150;-74
2022/09/15 12:45:01;;;;;;;5.05;1.70;;;18.10;99.90;;;;;;7392418;19;20148;-74
2022/09/15 12:47:59;;;;;;;3.60;1.98;;;18.10;99.90;;;;;;7394967;19;20142;-75
2022/09/15 12:50:35;;;;;;;4.75;3.10;;;18.20;99.90;;;;;;7392637;19;20503;-75
2022/09/15 12:53:24;;;;;;;4.05;3.03;;;18.30;99.90;;;;;;7392937;19;20153;-73
2022/09/15 12:56:00;;;;;;;3.15;1.95;;;18.40;99.90;;;;;;7392720;19;20138;-74
2022/09/15 12:59:02;;;;;;;2.53;1.90;;;18.40;99.90;;;;;;7391881;19;20154;-74
2022/09/15 13:01:50;;;;;;;3.55;2.83;;;18.60;99.90;;;;;;7387732;19;20663;-74
2022/09/15 13:04:47;;;;;;;4.03;2.47;;;18.70;99.90;;;;;;7393637;19;20150;-75
2022/09/15 13:07:18;;;;;;;3.45;2.10;;;18.60;99.90;;;;;;7387365;19;20142;-75
2022/09/15 13:09:59;;;;;;;5.15;2.05;;;18.60;99.90;;;;;;7390150;19;20146;-74
2022/09/15 13:12:42;;;;;;;1.45;1.33;;;18.70;99.90;;;;;;7389800;19;20202;-75